Terminal Aerodrome Forecast
Issued by NWS Sterling, VA

Current Version | Previous Version | Text Only | Print | Product List | Glossary Off
Versions: 1 2 3 4 5 6 7 8 9 10 11 12 13 14 15 16 17 18 19 20 21 22 23 24

105
FTUS41 KLWX 190525
TAFDCA
TAF
KDCA 190525Z 1906/2006 32005KT P6SM BKN035
     FM191100 32005KT P6SM SCT035
     FM192200 19004KT P6SM FEW030
     FM200000 VRB03KT P6SM FEW150=

USA.gov is the U.S. government's official web portal to all federal, state and local government web resources and services.